Startpagina
METAR-TAF:

METAR-TAF

Vliegvelden :

Petersburg, Alaska, Verenigde Staten

breedte: 56-49N, lengte: 132-58W, hoogte: 0 m

Actueel weer

Dit bericht is 30 minuten geleden gemaakt, om 19:56 UTC
Wind 6 kt uit het oosten
Temperatuur 6°C
Vochtigheid 49%
Druk 1030 hPa
Zicht: 16.1 km
Weinig wolken op 2800 ft

METAR: PAPG 101956Z 10006KT 10SM FEW028 06/M04 A3043 RMK AO2 SLP309 T00611039

Tijdstip: 12:26 (20:26 UTC)

Verwachting

Dit bericht is 3 uur en het 0 minuten geleden gemaakt, om 17:26 UTC
Verwachting geldig van 10 om 18 UTC tot 11 om 18 UTC
Wind 9 kt uit het noordoosten
Zicht: 10 km
Weinig wolken op 1500 ft
Van 11 om 0700 UTC
Wind 3 kt uit variabele richting
Zicht: 10 km
Onbewolkt

TAF: PAPG 101726Z 1018/1118 05009KT P6SM FEW015 FM110700 VRB03KT P6SM SKC AMD LTD TO CLD VIS AND WIND 1106/1115

Waarnemingen en weersverwachtingen van meer dan 4000 vliegvelden (METAR en TAF).

De beschikbare stations zijn de gele en rode punten op de kaart.

Ga met uw muis naar het station om de naam te zien.

Klik dan om waarnemingen en weersverwachtingen te zien.

kaart wijzigen: klik op de groene knoppen met een zwart kruis om in te zoomen, op de groene knop met een streepje om uit te zoomen of op de groene pijlen voor aangrenzende kaarten.


METAR-TAF: